Overview Statistics Trail Chart Weather Telemetry Raw packets
 

This is the latest recevied weather packets stored in our database for station/object OM8AGG-15. If no packets are shown the sender has not sent any weather packets the latest 10 day(s).

<< 3 4 5 6 7 8 9 >>
Time Temp. Humidity Pressure Rain* Wind** Luminosity Snow
1788492815 12.22° C 95% 1018.1 hPa - - - -
1788491915 12.78° C 95% 1018 hPa - - - -
1788491015 12.78° C 94% 1018 hPa - - - -
1788490114 12.78° C 99% 1018 hPa - - - -
1788489213 12.78° C 100% 1018.1 hPa - - - -
1788488313 12.78° C 96% 1018 hPa - - - -
1788487412 12.78° C 91% 1018 hPa - - - -
1788486512 13.33° C 89% 1018.1 hPa - - - -
1788485612 13.33° C 90% 1018.2 hPa - - - -
1788484712 13.89° C 90% 1018.3 hPa - - - -
1788483811 13.89° C 90% 1018.3 hPa - - - -
1788482911 13.33° C 90% 1018.2 hPa - - - -
1788482011 13.89° C 87% 1018.2 hPa - - - -
1788481129 13.89° C 85% 1018.2 hPa - - - -
1788480210 14.44° C 84% 1018.2 hPa - - - -
1788479310 14.44° C 84% 1018.3 hPa - - - -
1788478409 13.89° C 84% 1018.3 hPa - - - -
1788477509 14.44° C 82% 1018.3 hPa - - - -
1788476609 15° C 80% 1018.2 hPa - - - -
1788475708 15° C 80% 1018.4 hPa - - - -
1788474807 15.56° C 78% 1018.3 hPa - - - -
1788473907 16.11° C 72% 1018.3 hPa - - - -
1788473007 16.67° C 71% 1018.2 hPa - - - -
1788472106 16.67° C 71% 1018.1 hPa - - - -
1788471206 15.56° C 78% 1018 hPa - - - -

* Rain since midnight (hover to see other rain measurements)
** Current wind speed in m/s (hover to see current wind gust speed)